createdAt,value
2022-12-20T00:00:06.719Z,10.00
2022-12-20T00:02:33.572Z,10.00
2022-12-20T00:05:00.339Z,9.80
2022-12-20T00:09:54.472Z,9.90
2022-12-20T00:12:21.126Z,9.90
2022-12-20T00:17:14.921Z,9.80
2022-12-20T00:19:44.199Z,9.80
2022-12-20T00:22:11.083Z,9.80
2022-12-20T00:27:04.931Z,9.80
2022-12-20T00:29:31.729Z,9.80
2022-12-20T00:31:58.462Z,9.80
2022-12-20T00:34:25.221Z,9.90
2022-12-20T00:36:51.910Z,10.00
2022-12-20T00:39:18.610Z,10.10
2022-12-20T00:46:39.530Z,10.00
2022-12-20T00:49:07.445Z,10.00
2022-12-20T00:51:34.157Z,10.00
2022-12-20T01:01:26.034Z,9.80
2022-12-20T01:03:53.615Z,9.80
2022-12-20T01:06:21.416Z,9.70
2022-12-20T01:08:48.360Z,9.70
2022-12-20T01:11:20.869Z,9.60
2022-12-20T01:13:50.983Z,9.60
2022-12-20T01:16:21.627Z,9.60
2022-12-20T01:18:49.013Z,9.60
2022-12-20T01:21:17.702Z,9.60
2022-12-20T01:23:44.472Z,9.60
2022-12-20T01:26:15.454Z,9.60
2022-12-20T01:28:44.442Z,9.70
2022-12-20T01:31:16.181Z,9.70
2022-12-20T01:33:43.860Z,9.70
2022-12-20T01:36:35.102Z,9.70
2022-12-20T01:39:06.287Z,9.70
2022-12-20T01:41:33.991Z,9.60
2022-12-20T01:44:03.248Z,9.60
2022-12-20T01:46:32.570Z,9.50
2022-12-20T01:49:06.334Z,9.60
2022-12-20T01:51:36.904Z,9.60
2022-12-20T01:54:26.408Z,9.60
2022-12-20T01:56:59.024Z,9.60
2022-12-20T01:59:27.175Z,9.50
2022-12-20T02:01:58.030Z,9.40
2022-12-20T02:06:52.117Z,9.40
2022-12-20T02:12:10.520Z,9.40
2022-12-20T02:15:08.081Z,9.30
2022-12-20T02:17:49.629Z,9.50
2022-12-20T02:20:46.896Z,9.50
2022-12-20T02:23:35.673Z,9.40
2022-12-20T02:26:30.358Z,9.40
2022-12-20T02:29:26.412Z,9.40
2022-12-20T02:32:08.263Z,9.30
2022-12-20T02:34:37.374Z,9.30
2022-12-20T02:37:04.641Z,9.20
2022-12-20T02:39:33.596Z,9.10
2022-12-20T02:42:08.049Z,9.10
2022-12-20T02:44:56.743Z,9.10
2022-12-20T02:47:37.195Z,9.10
2022-12-20T02:50:06.168Z,9.00
2022-12-20T02:52:33.955Z,9.00
2022-12-20T02:55:02.629Z,9.10
2022-12-20T02:57:38.049Z,9.10
2022-12-20T03:00:13.384Z,9.00
2022-12-20T03:03:00.513Z,9.00
2022-12-20T03:05:28.056Z,9.00
2022-12-20T03:07:55.119Z,9.00
2022-12-20T03:10:22.735Z,8.90
2022-12-20T03:17:43.767Z,8.90
2022-12-20T03:20:11.289Z,8.90
2022-12-20T03:22:38.787Z,8.90
2022-12-20T03:25:06.499Z,8.90
2022-12-20T03:27:33.523Z,8.90
2022-12-20T03:32:27.503Z,8.90
2022-12-20T03:37:22.111Z,8.90
2022-12-20T03:39:48.782Z,8.90
2022-12-20T03:44:42.879Z,8.90
2022-12-20T03:47:09.924Z,8.90
2022-12-20T03:54:31.001Z,8.90
2022-12-20T04:09:13.295Z,9.00
2022-12-20T04:11:40.027Z,8.90
2022-12-20T04:16:34.711Z,8.90
2022-12-20T04:19:01.517Z,9.00
2022-12-20T04:21:30.739Z,8.90
2022-12-20T04:23:59.225Z,8.90
2022-12-20T04:31:24.223Z,8.90
2022-12-20T04:36:18.515Z,8.90
2022-12-20T04:43:54.264Z,8.80
2022-12-20T04:46:21.968Z,8.80
2022-12-20T04:48:58.302Z,8.80
2022-12-20T04:51:27.055Z,8.80
2022-12-20T04:56:22.585Z,8.70
2022-12-20T04:58:51.356Z,8.60
2022-12-20T05:01:18.867Z,8.70
2022-12-20T05:03:46.671Z,8.70
2022-12-20T05:06:14.067Z,8.70
2022-12-20T05:11:08.653Z,8.70
2022-12-20T05:13:35.559Z,8.70
2022-12-20T05:21:16.917Z,8.80
2022-12-20T05:26:32.160Z,8.80
2022-12-20T05:28:58.878Z,8.80
2022-12-20T05:33:52.863Z,8.90
2022-12-20T05:38:47.082Z,8.90
2022-12-20T05:46:08.040Z,8.90
2022-12-20T05:48:34.754Z,8.90
2022-12-20T06:00:50.642Z,9.00
2022-12-20T06:05:45.998Z,9.10
2022-12-20T06:10:41.824Z,9.00
2022-12-20T06:13:09.559Z,9.10
2022-12-20T06:15:37.085Z,9.10
2022-12-20T06:18:04.046Z,9.10
2022-12-20T06:20:31.221Z,9.10
2022-12-20T06:25:25.707Z,9.20
2022-12-20T06:27:52.495Z,9.20
2022-12-20T06:30:19.820Z,9.10
2022-12-20T06:37:41.966Z,9.10
2022-12-20T06:40:13.931Z,9.20
2022-12-20T06:45:08.414Z,9.10
2022-12-20T06:47:35.068Z,9.10
2022-12-20T06:50:01.905Z,9.10
2022-12-20T06:54:55.771Z,9.00
2022-12-20T06:57:22.462Z,9.00
2022-12-20T07:02:16.517Z,8.90
2022-12-20T07:07:12.765Z,8.90
2022-12-20T07:12:09.539Z,9.00
2022-12-20T07:14:36.614Z,9.00
2022-12-20T07:17:05.073Z,9.00
2022-12-20T07:24:26.348Z,8.90
2022-12-20T07:26:53.202Z,8.90
2022-12-20T07:29:19.951Z,8.90
2022-12-20T07:31:46.814Z,8.90
2022-12-20T07:34:13.756Z,8.90
2022-12-20T07:39:07.535Z,8.90
2022-12-20T07:41:34.330Z,8.90
2022-12-20T07:46:28.416Z,9.00
2022-12-20T07:51:28.035Z,9.10
2022-12-20T07:54:03.886Z,9.10
2022-12-20T07:56:40.856Z,9.10
2022-12-20T07:59:11.463Z,9.20
2022-12-20T08:01:39.167Z,9.20
2022-12-20T08:04:11.210Z,9.20
2022-12-20T08:06:40.541Z,9.30
2022-12-20T08:09:08.642Z,9.20
2022-12-20T08:11:37.196Z,9.20
2022-12-20T08:14:06.570Z,9.30
2022-12-20T08:16:33.573Z,9.30
2022-12-20T08:21:27.726Z,9.30
2022-12-20T08:26:21.493Z,9.30
2022-12-20T08:28:48.440Z,9.30
2022-12-20T08:33:42.452Z,9.30
2022-12-20T08:36:12.356Z,9.30
2022-12-20T08:38:40.232Z,9.30
2022-12-20T08:41:12.894Z,9.40
2022-12-20T08:43:40.647Z,9.40
2022-12-20T08:46:08.734Z,9.30
2022-12-20T08:51:06.355Z,9.30
2022-12-20T08:53:34.702Z,9.30
2022-12-20T08:56:15.933Z,9.30
2022-12-20T08:58:44.212Z,9.30
2022-12-20T09:01:18.181Z,9.30
2022-12-20T09:03:45.880Z,9.30
2022-12-20T09:06:18.683Z,9.40
2022-12-20T09:08:45.873Z,9.40
2022-12-20T09:11:18.485Z,9.40
2022-12-20T09:13:47.557Z,9.30
2022-12-20T09:16:16.285Z,9.30
2022-12-20T09:18:43.546Z,9.40
2022-12-20T09:21:11.663Z,9.30
2022-12-20T09:23:40.160Z,9.40
2022-12-20T09:26:10.275Z,9.40
2022-12-20T09:31:07.100Z,9.40
2022-12-20T09:33:35.256Z,9.30
2022-12-20T09:36:02.616Z,9.40
2022-12-20T09:38:31.115Z,9.50
2022-12-20T09:41:06.814Z,9.50
2022-12-20T09:43:34.651Z,9.50
2022-12-20T09:46:02.909Z,9.50
2022-12-20T09:48:35.269Z,9.60
2022-12-20T09:51:10.519Z,9.60
2022-12-20T09:53:59.033Z,9.60
2022-12-20T09:56:33.154Z,9.70
2022-12-20T09:59:14.461Z,9.70
2022-12-20T10:01:46.240Z,9.80
2022-12-20T10:04:23.771Z,9.90
2022-12-20T10:09:29.730Z,10.00
2022-12-20T10:14:42.005Z,10.10
2022-12-20T10:17:15.648Z,10.10
2022-12-20T10:20:24.467Z,10.10
2022-12-20T10:23:07.456Z,10.00
2022-12-20T10:25:35.113Z,10.00
2022-12-20T10:28:12.569Z,10.10
2022-12-20T10:33:14.047Z,10.20
2022-12-20T10:35:41.618Z,10.40
2022-12-20T10:38:13.815Z,10.20
2022-12-20T10:43:44.836Z,10.30
2022-12-20T10:46:13.291Z,10.30
2022-12-20T10:48:42.147Z,10.30
2022-12-20T10:51:15.171Z,10.40
2022-12-20T10:54:03.050Z,10.50
2022-12-20T10:56:38.862Z,10.60
2022-12-20T10:59:17.770Z,10.60
2022-12-20T11:01:48.829Z,10.60
2022-12-20T11:04:29.728Z,10.70
2022-12-20T11:06:57.575Z,10.70
2022-12-20T11:09:29.651Z,10.70
2022-12-20T11:12:04.090Z,10.70
2022-12-20T11:14:38.800Z,10.70
2022-12-20T11:17:35.124Z,10.70
2022-12-20T11:20:41.067Z,10.70
2022-12-20T11:23:07.670Z,10.70
2022-12-20T11:26:07.622Z,10.60
2022-12-20T11:28:53.153Z,10.60
2022-12-20T11:31:53.294Z,10.60
2022-12-20T11:34:34.945Z,10.60
2022-12-20T11:37:01.902Z,10.60
2022-12-20T11:39:47.774Z,10.60
2022-12-20T11:42:37.763Z,10.60
2022-12-20T11:45:09.668Z,10.70
2022-12-20T11:48:04.372Z,10.70
2022-12-20T11:50:42.347Z,10.70
2022-12-20T11:54:00.401Z,10.70
2022-12-20T11:56:43.843Z,10.80
2022-12-20T11:59:22.564Z,10.70
2022-12-20T12:02:15.491Z,10.70
2022-12-20T12:05:03.417Z,10.70
2022-12-20T12:07:33.398Z,10.70
2022-12-20T12:10:06.173Z,10.80
2022-12-20T12:12:47.675Z,10.70
2022-12-20T12:15:48.021Z,10.70
2022-12-20T12:18:21.610Z,10.80
2022-12-20T12:20:48.247Z,10.80
2022-12-20T12:23:39.966Z,10.80
2022-12-20T12:26:31.437Z,10.70
2022-12-20T12:29:02.572Z,10.70
2022-12-20T12:31:34.556Z,10.70
2022-12-20T12:34:43.651Z,10.70
2022-12-20T12:37:10.281Z,10.70
2022-12-20T12:39:50.589Z,10.70
2022-12-20T12:42:38.934Z,10.70
2022-12-20T12:45:27.600Z,10.80
2022-12-20T12:48:12.453Z,10.80
2022-12-20T12:50:46.032Z,10.80
2022-12-20T12:53:36.324Z,10.70
2022-12-20T12:56:43.957Z,10.70
2022-12-20T12:59:46.037Z,10.70
2022-12-20T13:02:16.227Z,10.60
2022-12-20T13:04:57.521Z,10.60
2022-12-20T13:07:44.608Z,10.50
2022-12-20T13:10:20.178Z,10.50
2022-12-20T13:12:51.680Z,10.40
2022-12-20T13:15:21.320Z,10.40
2022-12-20T13:17:50.412Z,10.40
2022-12-20T13:20:24.371Z,10.40
2022-12-20T13:23:10.440Z,10.40
2022-12-20T13:25:48.266Z,10.40
2022-12-20T13:28:24.047Z,10.40
2022-12-20T13:30:53.525Z,10.30
2022-12-20T13:33:45.184Z,10.30
2022-12-20T13:36:11.866Z,10.30
2022-12-20T13:38:53.810Z,10.30
2022-12-20T13:41:34.887Z,10.30
2022-12-20T13:44:21.469Z,10.20
2022-12-20T13:47:00.438Z,10.20
2022-12-20T13:49:39.131Z,10.20
2022-12-20T13:52:11.908Z,10.20
2022-12-20T13:54:48.789Z,10.20
2022-12-20T13:57:21.199Z,10.20
2022-12-20T13:59:49.830Z,10.20
2022-12-20T14:02:36.629Z,10.20
2022-12-20T14:05:13.322Z,10.20
2022-12-20T14:07:40.587Z,10.30
2022-12-20T14:10:28.702Z,10.20
2022-12-20T14:12:56.080Z,10.20
2022-12-20T14:15:27.880Z,10.20
2022-12-20T14:17:54.897Z,10.20
2022-12-20T14:20:28.916Z,10.20
2022-12-20T14:23:05.834Z,10.20
2022-12-20T14:25:42.331Z,10.30
2022-12-20T14:28:40.530Z,10.20
2022-12-20T14:31:22.762Z,10.20
2022-12-20T14:33:51.292Z,10.30
2022-12-20T14:36:21.029Z,10.30
2022-12-20T14:38:50.769Z,10.30
2022-12-20T14:41:36.968Z,10.20
2022-12-20T14:44:24.801Z,10.20
2022-12-20T14:46:57.868Z,10.20
2022-12-20T14:49:36.497Z,10.20
2022-12-20T14:52:11.808Z,10.20
2022-12-20T14:55:07.913Z,10.20
2022-12-20T14:57:36.030Z,10.20
2022-12-20T15:00:17.649Z,10.20
2022-12-20T15:02:56.906Z,10.20
2022-12-20T15:05:38.817Z,10.20
2022-12-20T15:08:29.678Z,10.30
2022-12-20T15:11:08.573Z,10.20
2022-12-20T15:13:52.503Z,10.30
2022-12-20T15:16:20.409Z,10.20
2022-12-20T15:18:54.963Z,10.20
2022-12-20T15:21:35.658Z,10.20
2022-12-20T15:24:07.806Z,10.20
2022-12-20T15:26:34.842Z,10.10
2022-12-20T15:29:01.709Z,10.20
2022-12-20T15:31:33.639Z,10.20
2022-12-20T15:34:04.315Z,10.20
2022-12-20T15:36:31.214Z,10.20
2022-12-20T15:39:15.240Z,10.20
2022-12-20T15:41:47.206Z,10.10
2022-12-20T15:44:20.737Z,10.20
2022-12-20T15:46:48.251Z,10.20
2022-12-20T15:49:23.163Z,10.10
2022-12-20T15:51:51.316Z,10.20
2022-12-20T15:54:30.333Z,10.20
2022-12-20T15:57:01.575Z,10.20
2022-12-20T16:02:24.199Z,10.10
2022-12-20T16:04:51.965Z,10.10
2022-12-20T16:07:19.107Z,10.00
2022-12-20T16:09:45.953Z,10.00
2022-12-20T16:12:35.427Z,10.00
2022-12-20T16:15:02.431Z,10.00
2022-12-20T16:17:29.336Z,10.00
2022-12-20T16:19:56.064Z,10.00
2022-12-20T16:22:23.751Z,10.00
2022-12-20T16:24:51.729Z,10.10
2022-12-20T16:27:18.638Z,10.00
2022-12-20T16:29:45.549Z,10.00
2022-12-20T16:32:20.164Z,10.10
2022-12-20T16:34:48.984Z,10.00
2022-12-20T16:37:16.051Z,10.00
2022-12-20T16:39:42.933Z,10.10
2022-12-20T16:42:17.789Z,10.10
2022-12-20T16:44:45.475Z,10.00
2022-12-20T16:47:13.420Z,10.00
2022-12-20T16:49:44.508Z,10.00
2022-12-20T16:52:18.554Z,10.00
2022-12-20T16:54:45.444Z,10.00
2022-12-20T17:02:28.664Z,10.00
2022-12-20T17:04:55.775Z,10.00
2022-12-20T17:07:22.635Z,9.90
2022-12-20T17:12:33.896Z,10.00
2022-12-20T17:15:00.583Z,10.00
2022-12-20T17:19:54.293Z,10.00
2022-12-20T17:22:23.622Z,10.00
2022-12-20T17:27:17.414Z,10.00
2022-12-20T17:32:27.899Z,10.00
2022-12-20T17:34:55.235Z,10.00
2022-12-20T17:39:49.531Z,10.00
2022-12-20T17:42:16.748Z,10.00
2022-12-20T17:44:43.937Z,10.00
2022-12-20T17:52:05.674Z,9.90
2022-12-20T17:54:39.703Z,10.00
2022-12-20T17:57:15.876Z,10.00
2022-12-20T18:02:24.333Z,10.00
2022-12-20T18:04:51.620Z,10.00
2022-12-20T18:07:18.409Z,10.00
2022-12-20T18:09:47.958Z,10.00
2022-12-20T18:12:14.760Z,9.90
2022-12-20T18:14:41.534Z,10.00
2022-12-20T18:19:35.473Z,10.00
2022-12-20T18:22:04.495Z,10.00
2022-12-20T18:24:31.244Z,10.00
2022-12-20T18:34:19.556Z,9.90
2022-12-20T18:39:13.435Z,10.00
2022-12-20T18:41:42.793Z,10.00
2022-12-20T18:44:10.650Z,10.00
2022-12-20T18:46:37.485Z,10.00
2022-12-20T18:49:04.433Z,10.00
2022-12-20T18:51:36.386Z,10.00
2022-12-20T18:56:32.798Z,10.00
2022-12-20T18:59:09.920Z,10.00
2022-12-20T19:01:38.943Z,10.00
2022-12-20T19:04:07.246Z,10.00
2022-12-20T19:06:34.665Z,10.00
2022-12-20T19:09:03.359Z,10.00
2022-12-20T19:11:30.159Z,10.00
2022-12-20T19:13:57.316Z,10.00
2022-12-20T19:16:27.971Z,10.00
2022-12-20T19:21:24.733Z,10.00
2022-12-20T19:23:53.708Z,10.00
2022-12-20T19:26:22.385Z,10.00
2022-12-20T19:28:49.534Z,10.50
2022-12-20T19:31:30.239Z,10.00
2022-12-20T19:34:02.835Z,10.00
2022-12-20T19:36:34.357Z,10.00
2022-12-20T19:39:02.696Z,10.00
2022-12-20T19:41:31.730Z,10.00
2022-12-20T19:43:59.020Z,10.00
2022-12-20T19:48:57.509Z,10.00
2022-12-20T19:53:53.708Z,10.00
2022-12-20T19:56:23.780Z,10.00
2022-12-20T19:58:50.729Z,10.00
2022-12-20T20:01:18.538Z,10.00
2022-12-20T20:03:45.824Z,10.00
2022-12-20T20:06:12.907Z,10.00
2022-12-20T20:11:09.863Z,10.00
2022-12-20T20:13:38.455Z,10.00
2022-12-20T20:16:07.041Z,10.00
2022-12-20T20:18:35.961Z,10.00
2022-12-20T20:21:12.331Z,10.00
2022-12-20T20:26:13.566Z,9.90
2022-12-20T20:31:15.147Z,9.90
2022-12-20T20:33:42.919Z,9.90
2022-12-20T20:36:18.572Z,9.90
2022-12-20T20:41:14.030Z,9.90
2022-12-20T20:46:11.408Z,9.90
2022-12-20T20:48:39.249Z,9.90
2022-12-20T20:51:06.407Z,9.90
2022-12-20T20:53:34.400Z,9.90
2022-12-20T20:56:05.777Z,9.90
2022-12-20T20:58:33.303Z,9.90
2022-12-20T21:01:02.009Z,10.00
2022-12-20T21:03:30.509Z,9.90
2022-12-20T21:06:36.539Z,9.90
2022-12-20T21:08:44.720Z,9.90
2022-12-20T21:11:11.784Z,9.90
2022-12-20T21:16:14.001Z,9.90
2022-12-20T21:18:40.817Z,9.90
2022-12-20T21:21:12.399Z,9.90
2022-12-20T21:23:43.119Z,9.90
2022-12-20T21:31:06.570Z,10.00
2022-12-20T21:36:10.719Z,9.90
2022-12-20T21:41:07.916Z,10.00
2022-12-20T21:43:34.972Z,10.00
2022-12-20T21:48:29.659Z,10.00
2022-12-20T21:51:02.244Z,10.00
2022-12-20T21:53:29.897Z,10.00
2022-12-20T21:55:58.629Z,10.00
2022-12-20T21:58:26.370Z,9.90
2022-12-20T22:00:55.099Z,10.00
2022-12-20T22:03:24.003Z,9.90
2022-12-20T22:05:53.141Z,9.90
2022-12-20T22:08:21.437Z,9.90
2022-12-20T22:10:49.908Z,9.90
2022-12-20T22:15:43.892Z,10.00
2022-12-20T22:18:11.242Z,9.90
2022-12-20T22:20:37.896Z,9.90
2022-12-20T22:23:05.376Z,9.90
2022-12-20T22:25:35.219Z,9.90
2022-12-20T22:28:01.955Z,9.90
2022-12-20T22:30:28.678Z,9.90
2022-12-20T22:35:23.207Z,9.90
2022-12-20T22:37:51.755Z,9.90
2022-12-20T22:40:19.208Z,9.90
2022-12-20T22:45:13.719Z,9.90
2022-12-20T22:47:41.445Z,9.90
2022-12-20T22:52:35.606Z,9.90
2022-12-20T22:55:03.048Z,9.90
2022-12-20T22:57:29.852Z,9.90
2022-12-20T22:59:58.686Z,9.90
2022-12-20T23:02:26.724Z,10.00
2022-12-20T23:04:53.990Z,9.90
2022-12-20T23:07:21.527Z,9.90
2022-12-20T23:09:48.704Z,10.00
2022-12-20T23:12:34.126Z,10.00
2022-12-20T23:15:33.242Z,9.90
2022-12-20T23:17:59.918Z,9.90
2022-12-20T23:20:44.983Z,9.90
2022-12-20T23:23:11.668Z,9.90
2022-12-20T23:28:05.373Z,9.90
2022-12-20T23:32:59.121Z,9.90
2022-12-20T23:37:55.871Z,9.90
2022-12-20T23:40:22.571Z,9.90
2022-12-20T23:42:52.261Z,9.90
2022-12-20T23:45:18.902Z,9.80
2022-12-20T23:52:40.433Z,9.90
2022-12-20T23:55:07.481Z,9.90
2022-12-20T23:57:34.263Z,9.90
